PWSweather.com
Personal Weather Stations
Station Observations
KOHAVON11
Long Road Station, Avon, OH 44011

Long Road StationAvon, OH 44011

Lat: 41.437, Lon: -82.0477

Elevation: 686

Station Type: Davis Vantage Pro2

http://www.avon-weather.com

High Low Average
Temperature 24.8°F-4.0°F 2.3°F-16.5°F 11.9°F-11.2°F
Dew Point 19.8°F-6.8°F -4.3°F-20.2°F 4.9°F-15.1°F
Winds 10.0 mph WSW16.1 mph WSW Calm Calm 4.2 mph 6.8 mph
Wind Gusts 17.0 mph27.4 mph 2.0 mph3.2 mph 9.4 mph15.1 mph
Humidity 85% 66% 73%
Pressure 30.55 in1034.50 in 30.34 in1027.40 in -
Precipitation 0.00 in0.00 in - -
Hour Temp Dew Point Humidity Winds Wind Gusts Pressure Precip Precip Rate Daily Precip Total
12:03 AM 24.8°F-4.0°C 19.8°F-6.8°C 81% 2.0 mph SW3.2 kmh SW 6.0 mph9.7 kmh 30.35 in1027.8 mb 0.00 in0.0 mm 0.00 in0.0 mm 0.00 in0.0 mm
12:08 AM 24.7°F-4.1°C 19.7°F-6.8°C 81% 4.0 mph WSW6.4 kmh WSW 6.0 mph9.7 kmh 30.35 in1027.8 mb 0.00 in0.0 mm 0.00 in0.0 mm 0.00 in0.0 mm
12:13 AM 24.7°F-4.1°C 19.7°F-6.8°C 81% 2.0 mph WSW3.2 kmh WSW 6.0 mph9.7 kmh 30.35 in1027.8 mb 0.00 in0.0 mm 0.00 in0.0 mm 0.00 in0.0 mm
12:18 AM 24.6°F-4.1°C 19.6°F-6.9°C 81% 2.0 mph SW3.2 kmh SW 6.0 mph9.7 kmh 30.35 in1027.8 mb 0.00 in0.0 mm 0.00 in0.0 mm 0.00 in0.0 mm
12:23 AM 24.5°F-4.2°C 19.5°F-6.9°C 81% 2.0 mph W3.2 kmh W 6.0 mph9.7 kmh 30.35 in1027.8 mb 0.00 in0.0 mm 0.00 in0.0 mm 0.00 in0.0 mm
12:28 AM 24.3°F-4.3°C 19.3°F-7.1°C 81% Calm Calm 6.0 mph9.7 kmh 30.35 in1027.8 mb 0.00 in0.0 mm 0.00 in0.0 mm 0.00 in0.0 mm
12:33 AM 24.0°F-4.4°C 19.0°F-7.2°C 81% 1.0 mph W1.6 kmh W 5.0 mph8.0 kmh 30.34 in1027.4 mb 0.00 in0.0 mm 0.00 in0.0 mm 0.00 in0.0 mm
12:38 AM 23.8°F-4.6°C 18.8°F-7.3°C 81% 2.0 mph SW3.2 kmh SW 5.0 mph8.0 kmh 30.34 in1027.4 mb 0.00 in0.0 mm 0.00 in0.0 mm 0.00 in0.0 mm
12:43 AM 23.6°F-4.7°C 18.6°F-7.4°C 81% 2.0 mph SW3.2 kmh SW 2.0 mph3.2 kmh 30.34 in1027.4 mb 0.00 in0.0 mm 0.00 in0.0 mm 0.00 in0.0 mm
12:48 AM 23.3°F-4.8°C 18.1°F-7.7°C 80% 3.0 mph WSW4.8 kmh WSW 3.0 mph4.8 kmh 30.34 in1027.4 mb 0.00 in0.0 mm 0.00 in0.0 mm 0.00 in0.0 mm
12:53 AM 23.0°F-5.0°C 18.1°F-7.7°C 81% 1.0 mph SW1.6 kmh SW 4.0 mph6.4 kmh 30.35 in1027.8 mb 0.00 in0.0 mm 0.00 in0.0 mm 0.00 in0.0 mm
12:58 AM 22.7°F-5.2°C 17.8°F-7.9°C 81% 2.0 mph SW3.2 kmh SW 4.0 mph6.4 kmh 30.35 in1027.8 mb 0.00 in0.0 mm 0.00 in0.0 mm 0.00 in0.0 mm
01:03 AM 22.5°F-5.3°C 17.6°F-8.0°C 81% 2.0 mph SW3.2 kmh SW 4.0 mph6.4 kmh 30.35 in1027.8 mb 0.00 in0.0 mm 0.00 in0.0 mm 0.00 in0.0 mm
01:08 AM 22.3°F-5.4°C 17.4°F-8.1°C 81% 1.0 mph SW1.6 kmh SW 4.0 mph6.4 kmh 30.35 in1027.8 mb 0.00 in0.0 mm 0.00 in0.0 mm 0.00 in0.0 mm
01:13 AM 22.0°F-5.6°C 17.4°F-8.1°C 82% 2.0 mph SW3.2 kmh SW 4.0 mph6.4 kmh 30.35 in1027.8 mb 0.00 in0.0 mm 0.00 in0.0 mm 0.00 in0.0 mm
01:18 AM 21.8°F-5.7°C 17.2°F-8.2°C 82% 1.0 mph SW1.6 kmh SW 4.0 mph6.4 kmh 30.35 in1027.8 mb 0.00 in0.0 mm 0.00 in0.0 mm 0.00 in0.0 mm
01:23 AM 21.6°F-5.8°C 17.0°F-8.3°C 82% 4.0 mph SW6.4 kmh SW 4.0 mph6.4 kmh 30.35 in1027.8 mb 0.00 in0.0 mm 0.00 in0.0 mm 0.00 in0.0 mm
01:28 AM 21.3°F-5.9°C 16.7°F-8.5°C 82% 2.0 mph SW3.2 kmh SW 4.0 mph6.4 kmh 30.35 in1027.8 mb 0.00 in0.0 mm 0.00 in0.0 mm 0.00 in0.0 mm
01:33 AM 21.0°F-6.1°C 16.4°F-8.7°C 82% 4.0 mph SSW6.4 kmh SSW 4.0 mph6.4 kmh 30.35 in1027.8 mb 0.00 in0.0 mm 0.00 in0.0 mm 0.00 in0.0 mm
01:38 AM 20.9°F-6.2°C 16.3°F-8.7°C 82% 4.0 mph S6.4 kmh S 5.0 mph8.0 kmh 30.35 in1027.8 mb 0.00 in0.0 mm 0.00 in0.0 mm 0.00 in0.0 mm
01:43 AM 20.8°F-6.2°C 16.2°F-8.8°C 82% 3.0 mph SSW4.8 kmh SSW 5.0 mph8.0 kmh 30.36 in1028.1 mb 0.00 in0.0 mm 0.00 in0.0 mm 0.00 in0.0 mm
01:48 AM 20.7°F-6.3°C 16.4°F-8.7°C 83% Calm Calm 5.0 mph8.0 kmh 30.36 in1028.1 mb 0.00 in0.0 mm 0.00 in0.0 mm 0.00 in0.0 mm
01:53 AM 20.7°F-6.3°C 16.4°F-8.7°C 83% 1.0 mph SSW1.6 kmh SSW 2.0 mph3.2 kmh 30.36 in1028.1 mb 0.00 in0.0 mm 0.00 in0.0 mm 0.00 in0.0 mm
01:58 AM 20.7°F-6.3°C 16.4°F-8.7°C 83% Calm Calm 3.0 mph4.8 kmh 30.36 in1028.1 mb 0.00 in0.0 mm 0.00 in0.0 mm 0.00 in0.0 mm
02:03 AM 20.7°F-6.3°C 16.4°F-8.7°C 83% 1.0 mph WSW1.6 kmh WSW 3.0 mph4.8 kmh 30.36 in1028.1 mb 0.00 in0.0 mm 0.00 in0.0 mm 0.00 in0.0 mm
02:08 AM 20.8°F-6.2°C 16.8°F-8.4°C 84% 1.0 mph WSW1.6 kmh WSW 3.0 mph4.8 kmh 30.37 in1028.4 mb 0.00 in0.0 mm 0.00 in0.0 mm 0.00 in0.0 mm
02:13 AM 20.9°F-6.2°C 16.9°F-8.4°C 84% 2.0 mph SW3.2 kmh SW 4.0 mph6.4 kmh 30.36 in1028.1 mb 0.00 in0.0 mm 0.00 in0.0 mm 0.00 in0.0 mm
02:18 AM 21.0°F-6.1°C 17.0°F-8.3°C 84% 2.0 mph SW3.2 kmh SW 4.0 mph6.4 kmh 30.37 in1028.4 mb 0.00 in0.0 mm 0.00 in0.0 mm 0.00 in0.0 mm
02:23 AM 21.1°F-6.1°C 17.1°F-8.3°C 84% Calm Calm 4.0 mph6.4 kmh 30.37 in1028.4 mb 0.00 in0.0 mm 0.00 in0.0 mm 0.00 in0.0 mm
02:28 AM 21.2°F-6.0°C 17.2°F-8.2°C 84% 1.0 mph SW1.6 kmh SW 4.0 mph6.4 kmh 30.37 in1028.4 mb 0.00 in0.0 mm 0.00 in0.0 mm 0.00 in0.0 mm
02:33 AM 21.2°F-6.0°C 17.2°F-8.2°C 84% 1.0 mph SW1.6 kmh SW 3.0 mph4.8 kmh 30.37 in1028.4 mb 0.00 in0.0 mm 0.00 in0.0 mm 0.00 in0.0 mm
02:38 AM 21.1°F-6.1°C 17.1°F-8.3°C 84% 1.0 mph WSW1.6 kmh WSW 4.0 mph6.4 kmh 30.37 in1028.4 mb 0.00 in0.0 mm 0.00 in0.0 mm 0.00 in0.0 mm
02:43 AM 21.1°F-6.1°C 17.1°F-8.3°C 84% 2.0 mph WSW3.2 kmh WSW 4.0 mph6.4 kmh 30.38 in1028.8 mb 0.00 in0.0 mm 0.00 in0.0 mm 0.00 in0.0 mm
02:48 AM 21.0°F-6.1°C 17.0°F-8.3°C 84% 2.0 mph WSW3.2 kmh WSW 4.0 mph6.4 kmh 30.38 in1028.8 mb 0.00 in0.0 mm 0.00 in0.0 mm 0.00 in0.0 mm
02:53 AM 21.0°F-6.1°C 17.0°F-8.3°C 84% 2.0 mph WSW3.2 kmh WSW 4.0 mph6.4 kmh 30.38 in1028.8 mb 0.00 in0.0 mm 0.00 in0.0 mm 0.00 in0.0 mm
02:58 AM 21.0°F-6.1°C 17.0°F-8.3°C 84% 2.0 mph WSW3.2 kmh WSW 3.0 mph4.8 kmh 30.37 in1028.4 mb 0.00 in0.0 mm 0.00 in0.0 mm 0.00 in0.0 mm
03:03 AM 21.0°F-6.1°C 17.0°F-8.3°C 84% 1.0 mph WSW1.6 kmh WSW 2.0 mph3.2 kmh 30.37 in1028.4 mb 0.00 in0.0 mm 0.00 in0.0 mm 0.00 in0.0 mm
03:08 AM 20.9°F-6.2°C 16.9°F-8.4°C 84% 1.0 mph WSW1.6 kmh WSW 2.0 mph3.2 kmh 30.37 in1028.4 mb 0.00 in0.0 mm 0.00 in0.0 mm 0.00 in0.0 mm
03:13 AM 20.9°F-6.2°C 16.9°F-8.4°C 84% Calm Calm 3.0 mph4.8 kmh 30.37 in1028.4 mb 0.00 in0.0 mm 0.00 in0.0 mm 0.00 in0.0 mm
03:18 AM 20.9°F-6.2°C 16.9°F-8.4°C 84% 3.0 mph W4.8 kmh W 5.0 mph8.0 kmh 30.37 in1028.4 mb 0.00 in0.0 mm 0.00 in0.0 mm 0.00 in0.0 mm
03:23 AM 21.1°F-6.1°C 17.3°F-8.2°C 85% 2.0 mph WSW3.2 kmh WSW 5.0 mph8.0 kmh 30.37 in1028.4 mb 0.00 in0.0 mm 0.00 in0.0 mm 0.00 in0.0 mm
03:28 AM 21.2°F-6.0°C 17.2°F-8.2°C 84% 3.0 mph W4.8 kmh W 6.0 mph9.7 kmh 30.37 in1028.4 mb 0.00 in0.0 mm 0.00 in0.0 mm 0.00 in0.0 mm
03:33 AM 21.4°F-5.9°C 17.6°F-8.0°C 85% 2.0 mph W3.2 kmh W 6.0 mph9.7 kmh 30.38 in1028.8 mb 0.00 in0.0 mm 0.00 in0.0 mm 0.00 in0.0 mm
03:38 AM 21.5°F-5.8°C 17.5°F-8.1°C 84% 3.0 mph WSW4.8 kmh WSW 6.0 mph9.7 kmh 30.38 in1028.8 mb 0.00 in0.0 mm 0.00 in0.0 mm 0.00 in0.0 mm
03:43 AM 21.5°F-5.8°C 17.5°F-8.1°C 84% 6.0 mph WNW9.7 kmh WNW 6.0 mph9.7 kmh 30.38 in1028.8 mb 0.00 in0.0 mm 0.00 in0.0 mm 0.00 in0.0 mm
03:48 AM 21.3°F-5.9°C 17.0°F-8.3°C 83% 4.0 mph W6.4 kmh W 10.0 mph16.1 kmh 30.38 in1028.8 mb 0.00 in0.0 mm 0.00 in0.0 mm 0.00 in0.0 mm
03:53 AM 20.9°F-6.2°C 16.6°F-8.6°C 83% 5.0 mph NW8.0 kmh NW 12.0 mph19.3 kmh 30.39 in1029.1 mb 0.00 in0.0 mm 0.00 in0.0 mm 0.00 in0.0 mm
03:58 AM 20.6°F-6.3°C 16.0°F-8.9°C 82% 3.0 mph WNW4.8 kmh WNW 12.0 mph19.3 kmh 30.39 in1029.1 mb 0.00 in0.0 mm 0.00 in0.0 mm 0.00 in0.0 mm
04:03 AM 20.2°F-6.6°C 15.6°F-9.1°C 82% 6.0 mph NW9.7 kmh NW 12.0 mph19.3 kmh 30.39 in1029.1 mb 0.00 in0.0 mm 0.00 in0.0 mm 0.00 in0.0 mm
04:08 AM 19.9°F-6.7°C 15.0°F-9.4°C 81% 6.0 mph W9.7 kmh W 12.0 mph19.3 kmh 30.39 in1029.1 mb 0.00 in0.0 mm 0.00 in0.0 mm 0.00 in0.0 mm
04:13 AM 19.6°F-6.9°C 14.8°F-9.6°C 81% 4.0 mph WSW6.4 kmh WSW 10.0 mph16.1 kmh 30.40 in1029.5 mb 0.00 in0.0 mm 0.00 in0.0 mm 0.00 in0.0 mm
04:18 AM 19.4°F-7.0°C 14.6°F-9.7°C 81% 4.0 mph WSW6.4 kmh WSW 10.0 mph16.1 kmh 30.40 in1029.5 mb 0.00 in0.0 mm 0.00 in0.0 mm 0.00 in0.0 mm
04:23 AM 19.3°F-7.1°C 14.5°F-9.7°C 81% 4.0 mph W6.4 kmh W 10.0 mph16.1 kmh 30.40 in1029.5 mb 0.00 in0.0 mm 0.00 in0.0 mm 0.00 in0.0 mm
04:28 AM 19.1°F-7.2°C 14.3°F-9.8°C 81% 5.0 mph W8.0 kmh W 10.0 mph16.1 kmh 30.39 in1029.1 mb 0.00 in0.0 mm 0.00 in0.0 mm 0.00 in0.0 mm
04:33 AM 18.9°F-7.3°C 13.8°F-10.1°C 80% 4.0 mph W6.4 kmh W 10.0 mph16.1 kmh 30.39 in1029.1 mb 0.00 in0.0 mm 0.00 in0.0 mm 0.00 in0.0 mm
04:38 AM 18.6°F-7.4°C 13.5°F-10.3°C 80% 4.0 mph WSW6.4 kmh WSW 10.0 mph16.1 kmh 30.39 in1029.1 mb 0.00 in0.0 mm 0.00 in0.0 mm 0.00 in0.0 mm
04:43 AM 18.4°F-7.6°C 13.3°F-10.4°C 80% 6.0 mph W9.7 kmh W 11.0 mph17.7 kmh 30.40 in1029.5 mb 0.00 in0.0 mm 0.00 in0.0 mm 0.00 in0.0 mm
04:48 AM 18.2°F-7.7°C 13.1°F-10.5°C 80% 4.0 mph WNW6.4 kmh WNW 11.0 mph17.7 kmh 30.40 in1029.5 mb 0.00 in0.0 mm 0.00 in0.0 mm 0.00 in0.0 mm
04:53 AM 18.0°F-7.8°C 12.6°F-10.8°C 79% 4.0 mph WSW6.4 kmh WSW 11.0 mph17.7 kmh 30.40 in1029.5 mb 0.00 in0.0 mm 0.00 in0.0 mm 0.00 in0.0 mm
04:58 AM 17.6°F-8.0°C 12.2°F-11.0°C 79% 8.0 mph SW12.9 kmh SW 11.0 mph17.7 kmh 30.40 in1029.5 mb 0.00 in0.0 mm 0.00 in0.0 mm 0.00 in0.0 mm
05:03 AM 17.1°F-8.3°C 11.1°F-11.6°C 77% 7.0 mph WSW11.3 kmh WSW 12.0 mph19.3 kmh 30.41 in1029.8 mb 0.00 in0.0 mm 0.00 in0.0 mm 0.00 in0.0 mm
05:08 AM 16.5°F-8.6°C 10.3°F-12.1°C 76% 6.0 mph W9.7 kmh W 12.0 mph19.3 kmh 30.41 in1029.8 mb 0.00 in0.0 mm 0.00 in0.0 mm 0.00 in0.0 mm
05:13 AM 16.1°F-8.8°C 9.9°F-12.3°C 76% 9.0 mph WSW14.5 kmh WSW 12.0 mph19.3 kmh 30.41 in1029.8 mb 0.00 in0.0 mm 0.00 in0.0 mm 0.00 in0.0 mm
05:18 AM 15.8°F-9.0°C 9.6°F-12.4°C 76% 6.0 mph WSW9.7 kmh WSW 12.0 mph19.3 kmh 30.41 in1029.8 mb 0.00 in0.0 mm 0.00 in0.0 mm 0.00 in0.0 mm
05:23 AM 15.6°F-9.1°C 9.4°F-12.6°C 76% 5.0 mph SW8.0 kmh SW 11.0 mph17.7 kmh 30.41 in1029.8 mb 0.00 in0.0 mm 0.00 in0.0 mm 0.00 in0.0 mm
05:28 AM 15.4°F-9.2°C 9.2°F-12.7°C 76% 3.0 mph WSW4.8 kmh WSW 11.0 mph17.7 kmh 30.41 in1029.8 mb 0.00 in0.0 mm 0.00 in0.0 mm 0.00 in0.0 mm
05:33 AM 15.3°F-9.3°C 8.8°F-12.9°C 75% 8.0 mph WSW12.9 kmh WSW 11.0 mph17.7 kmh 30.42 in1030.1 mb 0.00 in0.0 mm 0.00 in0.0 mm 0.00 in0.0 mm
05:38 AM 15.0°F-9.4°C 8.5°F-13.1°C 75% 5.0 mph WSW8.0 kmh WSW 13.0 mph20.9 kmh 30.42 in1030.1 mb 0.00 in0.0 mm 0.00 in0.0 mm 0.00 in0.0 mm
05:43 AM 14.8°F-9.6°C 8.3°F-13.2°C 75% 5.0 mph WSW8.0 kmh WSW 13.0 mph20.9 kmh 30.42 in1030.1 mb 0.00 in0.0 mm 0.00 in0.0 mm 0.00 in0.0 mm
05:48 AM 14.6°F-9.7°C 8.1°F-13.3°C 75% 4.0 mph SW6.4 kmh SW 13.0 mph20.9 kmh 30.42 in1030.1 mb 0.00 in0.0 mm 0.00 in0.0 mm 0.00 in0.0 mm
05:53 AM 14.4°F-9.8°C 7.9°F-13.4°C 75% 4.0 mph SW6.4 kmh SW 13.0 mph20.9 kmh 30.42 in1030.1 mb 0.00 in0.0 mm 0.00 in0.0 mm 0.00 in0.0 mm
05:58 AM 14.1°F-9.9°C 7.6°F-13.6°C 75% 4.0 mph WSW6.4 kmh WSW 9.0 mph14.5 kmh 30.42 in1030.1 mb 0.00 in0.0 mm 0.00 in0.0 mm 0.00 in0.0 mm
06:03 AM 13.9°F-10.1°C 7.5°F-13.6°C 75% 4.0 mph WSW6.4 kmh WSW 9.0 mph14.5 kmh 30.43 in1030.5 mb 0.00 in0.0 mm 0.00 in0.0 mm 0.00 in0.0 mm
06:08 AM 13.7°F-10.2°C 7.0°F-13.9°C 74% 3.0 mph SW4.8 kmh SW 8.0 mph12.9 kmh 30.43 in1030.5 mb 0.00 in0.0 mm 0.00 in0.0 mm 0.00 in0.0 mm
06:13 AM 13.5°F-10.3°C 6.8°F-14.0°C 74% 5.0 mph WSW8.0 kmh WSW 9.0 mph14.5 kmh 30.43 in1030.5 mb 0.00 in0.0 mm 0.00 in0.0 mm 0.00 in0.0 mm
06:18 AM 13.3°F-10.4°C 6.6°F-14.1°C 74% 7.0 mph SW11.3 kmh SW 12.0 mph19.3 kmh 30.43 in1030.5 mb 0.00 in0.0 mm 0.00 in0.0 mm 0.00 in0.0 mm
06:23 AM 13.1°F-10.5°C 6.4°F-14.2°C 74% 7.0 mph WSW11.3 kmh WSW 14.0 mph22.5 kmh 30.43 in1030.5 mb 0.00 in0.0 mm 0.00 in0.0 mm 0.00 in0.0 mm
06:28 AM 12.8°F-10.7°C 6.1°F-14.4°C 74% 5.0 mph WSW8.0 kmh WSW 14.0 mph22.5 kmh 30.44 in1030.8 mb 0.00 in0.0 mm 0.00 in0.0 mm 0.00 in0.0 mm
06:33 AM 12.7°F-10.7°C 6.0°F-14.4°C 74% 4.0 mph WSW6.4 kmh WSW 14.0 mph22.5 kmh 30.44 in1030.8 mb 0.00 in0.0 mm 0.00 in0.0 mm 0.00 in0.0 mm
06:38 AM 12.6°F-10.8°C 5.9°F-14.5°C 74% 6.0 mph SW9.7 kmh SW 14.0 mph22.5 kmh 30.44 in1030.8 mb 0.00 in0.0 mm 0.00 in0.0 mm 0.00 in0.0 mm
06:43 AM 12.4°F-10.9°C 5.7°F-14.6°C 74% 5.0 mph SW8.0 kmh SW 12.0 mph19.3 kmh 30.44 in1030.8 mb 0.00 in0.0 mm 0.00 in0.0 mm 0.00 in0.0 mm
06:48 AM 12.1°F-11.1°C 5.1°F-14.9°C 73% 6.0 mph SW9.7 kmh SW 12.0 mph19.3 kmh 30.45 in1031.2 mb 0.00 in0.0 mm 0.00 in0.0 mm 0.00 in0.0 mm
06:53 AM 11.8°F-11.2°C 4.8°F-15.1°C 73% 10.0 mph WSW16.1 kmh WSW 14.0 mph22.5 kmh 30.45 in1031.2 mb 0.00 in0.0 mm 0.00 in0.0 mm 0.00 in0.0 mm
06:58 AM 11.4°F-11.4°C 4.1°F-15.5°C 72% 8.0 mph WSW12.9 kmh WSW 14.0 mph22.5 kmh 30.45 in1031.2 mb 0.00 in0.0 mm 0.00 in0.0 mm 0.00 in0.0 mm
07:03 AM 11.0°F-11.7°C 3.7°F-15.7°C 72% 3.0 mph WSW4.8 kmh WSW 14.0 mph22.5 kmh 30.45 in1031.2 mb 0.00 in0.0 mm 0.00 in0.0 mm 0.00 in0.0 mm
07:08 AM 10.8°F-11.8°C 3.5°F-15.8°C 72% 7.0 mph S11.3 kmh S 14.0 mph22.5 kmh 30.45 in1031.2 mb 0.00 in0.0 mm 0.00 in0.0 mm 0.00 in0.0 mm
07:13 AM 10.7°F-11.8°C 3.5°F-15.8°C 72% 6.0 mph SSW9.7 kmh SSW 12.0 mph19.3 kmh 30.45 in1031.2 mb 0.00 in0.0 mm 0.00 in0.0 mm 0.00 in0.0 mm
07:18 AM 10.3°F-12.1°C 3.1°F-16.1°C 72% 9.0 mph WSW14.5 kmh WSW 12.0 mph19.3 kmh 30.45 in1031.2 mb 0.00 in0.0 mm 0.00 in0.0 mm 0.00 in0.0 mm
07:23 AM 10.0°F-12.2°C 2.5°F-16.4°C 71% 3.0 mph SW4.8 kmh SW 10.0 mph16.1 kmh 30.46 in1031.5 mb 0.00 in0.0 mm 0.00 in0.0 mm 0.00 in0.0 mm
07:28 AM 9.8°F-12.3°C 2.3°F-16.5°C 71% 6.0 mph SW9.7 kmh SW 10.0 mph16.1 kmh 30.46 in1031.5 mb 0.00 in0.0 mm 0.00 in0.0 mm 0.00 in0.0 mm
07:33 AM 9.5°F-12.5°C 2.0°F-16.7°C 71% 6.0 mph SW9.7 kmh SW 9.0 mph14.5 kmh 30.46 in1031.5 mb 0.00 in0.0 mm 0.00 in0.0 mm 0.00 in0.0 mm
07:38 AM 9.2°F-12.7°C 1.7°F-16.8°C 71% 3.0 mph SW4.8 kmh SW 9.0 mph14.5 kmh 30.46 in1031.5 mb 0.00 in0.0 mm 0.00 in0.0 mm 0.00 in0.0 mm
07:43 AM 8.9°F-12.8°C 1.4°F-17.0°C 71% 3.0 mph SW4.8 kmh SW 9.0 mph14.5 kmh 30.46 in1031.5 mb 0.00 in0.0 mm 0.00 in0.0 mm 0.00 in0.0 mm
07:48 AM 8.7°F-12.9°C 1.2°F-17.1°C 71% 4.0 mph SW6.4 kmh SW 9.0 mph14.5 kmh 30.47 in1031.8 mb 0.00 in0.0 mm 0.00 in0.0 mm 0.00 in0.0 mm
07:53 AM 8.3°F-13.2°C 0.8°F-17.3°C 71% 5.0 mph SW8.0 kmh SW 9.0 mph14.5 kmh 30.47 in1031.8 mb 0.00 in0.0 mm 0.00 in0.0 mm 0.00 in0.0 mm
07:58 AM 8.0°F-13.3°C 0.5°F-17.5°C 71% 3.0 mph SW4.8 kmh SW 9.0 mph14.5 kmh 30.47 in1031.8 mb 0.00 in0.0 mm 0.00 in0.0 mm 0.00 in0.0 mm
08:03 AM 7.7°F-13.5°C 0.3°F-17.6°C 71% 5.0 mph WSW8.0 kmh WSW 9.0 mph14.5 kmh 30.46 in1031.5 mb 0.00 in0.0 mm 0.00 in0.0 mm 0.00 in0.0 mm
08:08 AM 7.4°F-13.7°C 0.0°F-17.8°C 71% 3.0 mph WSW4.8 kmh WSW 8.0 mph12.9 kmh 30.47 in1031.8 mb 0.00 in0.0 mm 0.00 in0.0 mm 0.00 in0.0 mm
08:13 AM 7.2°F-13.8°C -0.2°F-17.9°C 71% 3.0 mph SW4.8 kmh SW 8.0 mph12.9 kmh 30.47 in1031.8 mb 0.00 in0.0 mm 0.00 in0.0 mm 0.00 in0.0 mm
08:18 AM 7.0°F-13.9°C -0.4°F-18.0°C 71% 3.0 mph SW4.8 kmh SW 8.0 mph12.9 kmh 30.47 in1031.8 mb 0.00 in0.0 mm 0.00 in0.0 mm 0.00 in0.0 mm
08:23 AM 6.8°F-14.0°C -0.6°F-18.1°C 71% 3.0 mph WSW4.8 kmh WSW 7.0 mph11.3 kmh 30.47 in1031.8 mb 0.00 in0.0 mm 0.00 in0.0 mm 0.00 in0.0 mm
08:28 AM 6.8°F-14.0°C -0.3°F-17.9°C 72% 4.0 mph SW6.4 kmh SW 8.0 mph12.9 kmh 30.47 in1031.8 mb 0.00 in0.0 mm 0.00 in0.0 mm 0.00 in0.0 mm
08:33 AM 6.8°F-14.0°C -0.3°F-17.9°C 72% 4.0 mph SW6.4 kmh SW 8.0 mph12.9 kmh 30.47 in1031.8 mb 0.00 in0.0 mm 0.00 in0.0 mm 0.00 in0.0 mm
08:38 AM 7.0°F-13.9°C 0.2°F-17.7°C 73% 5.0 mph SW8.0 kmh SW 8.0 mph12.9 kmh 30.47 in1031.8 mb 0.00 in0.0 mm 0.00 in0.0 mm 0.00 in0.0 mm
08:43 AM 7.1°F-13.8°C 0.3°F-17.6°C 73% 5.0 mph SW8.0 kmh SW 9.0 mph14.5 kmh 30.47 in1031.8 mb 0.00 in0.0 mm 0.00 in0.0 mm 0.00 in0.0 mm
08:48 AM 7.3°F-13.7°C 0.5°F-17.5°C 73% 5.0 mph SSW8.0 kmh SSW 10.0 mph16.1 kmh 30.47 in1031.8 mb 0.00 in0.0 mm 0.00 in0.0 mm 0.00 in0.0 mm
08:53 AM 7.4°F-13.7°C 0.6°F-17.4°C 73% 4.0 mph WSW6.4 kmh WSW 10.0 mph16.1 kmh 30.47 in1031.8 mb 0.00 in0.0 mm 0.00 in0.0 mm 0.00 in0.0 mm
08:58 AM 7.5°F-13.6°C 0.7°F-17.4°C 73% 2.0 mph WSW3.2 kmh WSW 12.0 mph19.3 kmh 30.47 in1031.8 mb 0.00 in0.0 mm 0.00 in0.0 mm 0.00 in0.0 mm
09:03 AM 7.6°F-13.6°C 0.8°F-17.3°C 73% 9.0 mph S14.5 kmh S 16.0 mph25.7 kmh 30.47 in1031.8 mb 0.00 in0.0 mm 0.00 in0.0 mm 0.00 in0.0 mm
09:08 AM 7.7°F-13.5°C 1.2°F-17.1°C 74% 6.0 mph SSW9.7 kmh SSW 16.0 mph25.7 kmh 30.47 in1031.8 mb 0.00 in0.0 mm 0.00 in0.0 mm 0.00 in0.0 mm
09:13 AM 7.7°F-13.5°C 1.2°F-17.1°C 74% 4.0 mph S6.4 kmh S 16.0 mph25.7 kmh 30.48 in1032.2 mb 0.00 in0.0 mm 0.00 in0.0 mm 0.00 in0.0 mm
09:18 AM 7.9°F-13.4°C 1.4°F-17.0°C 74% 5.0 mph SSW8.0 kmh SSW 16.0 mph25.7 kmh 30.48 in1032.2 mb 0.00 in0.0 mm 0.00 in0.0 mm 0.00 in0.0 mm
09:23 AM 8.0°F-13.3°C 1.5°F-16.9°C 74% 4.0 mph SW6.4 kmh SW 14.0 mph22.5 kmh 30.48 in1032.2 mb 0.00 in0.0 mm 0.00 in0.0 mm 0.00 in0.0 mm
09:28 AM 8.1°F-13.3°C 1.6°F-16.9°C 74% 10.0 mph S16.1 kmh S 14.0 mph22.5 kmh 30.48 in1032.2 mb 0.00 in0.0 mm 0.00 in0.0 mm 0.00 in0.0 mm
09:33 AM 8.2°F-13.2°C 1.6°F-16.9°C 74% 8.0 mph SSW12.9 kmh SSW 12.0 mph19.3 kmh 30.49 in1032.5 mb 0.00 in0.0 mm 0.00 in0.0 mm 0.00 in0.0 mm
09:38 AM 8.4°F-13.1°C 2.1°F-16.6°C 75% 7.0 mph S11.3 kmh S 12.0 mph19.3 kmh 30.49 in1032.5 mb 0.00 in0.0 mm 0.00 in0.0 mm 0.00 in0.0 mm
09:43 AM 8.6°F-13.0°C 2.3°F-16.5°C 75% 6.0 mph S9.7 kmh S 14.0 mph22.5 kmh 30.48 in1032.2 mb 0.00 in0.0 mm 0.00 in0.0 mm 0.00 in0.0 mm
09:48 AM 8.7°F-12.9°C 2.4°F-16.4°C 75% 10.0 mph SW16.1 kmh SW 14.0 mph22.5 kmh 30.48 in1032.2 mb 0.00 in0.0 mm 0.00 in0.0 mm 0.00 in0.0 mm
09:53 AM 8.9°F-12.8°C 2.6°F-16.3°C 75% 10.0 mph SSW16.1 kmh SSW 14.0 mph22.5 kmh 30.48 in1032.2 mb 0.00 in0.0 mm 0.00 in0.0 mm 0.00 in0.0 mm
09:58 AM 9.0°F-12.8°C 2.7°F-16.3°C 75% 7.0 mph SSW11.3 kmh SSW 14.0 mph22.5 kmh 30.48 in1032.2 mb 0.00 in0.0 mm 0.00 in0.0 mm 0.00 in0.0 mm
10:03 AM 9.3°F-12.6°C 3.0°F-16.1°C 75% 7.0 mph SSW11.3 kmh SSW 13.0 mph20.9 kmh 30.48 in1032.2 mb 0.00 in0.0 mm 0.00 in0.0 mm 0.00 in0.0 mm
10:08 AM 9.6°F-12.4°C 3.3°F-15.9°C 75% 5.0 mph S8.0 kmh S 13.0 mph20.9 kmh 30.49 in1032.5 mb 0.00 in0.0 mm 0.00 in0.0 mm 0.00 in0.0 mm
10:13 AM 9.8°F-12.3°C 3.5°F-15.8°C 75% 6.0 mph S9.7 kmh S 11.0 mph17.7 kmh 30.49 in1032.5 mb 0.00 in0.0 mm 0.00 in0.0 mm 0.00 in0.0 mm
10:18 AM 10.3°F-12.1°C 4.0°F-15.6°C 75% 4.0 mph SW6.4 kmh SW 11.0 mph17.7 kmh 30.49 in1032.5 mb 0.00 in0.0 mm 0.00 in0.0 mm 0.00 in0.0 mm
10:23 AM 10.5°F-11.9°C 3.9°F-15.6°C 74% 4.0 mph WSW6.4 kmh WSW 8.0 mph12.9 kmh 30.49 in1032.5 mb 0.00 in0.0 mm 0.00 in0.0 mm 0.00 in0.0 mm
10:28 AM 10.9°F-11.7°C 4.3°F-15.4°C 74% 4.0 mph SW6.4 kmh SW 11.0 mph17.7 kmh 30.48 in1032.2 mb 0.00 in0.0 mm 0.00 in0.0 mm 0.00 in0.0 mm
10:33 AM 11.1°F-11.6°C 4.4°F-15.3°C 74% 3.0 mph SW4.8 kmh SW 11.0 mph17.7 kmh 30.49 in1032.5 mb 0.00 in0.0 mm 0.00 in0.0 mm 0.00 in0.0 mm
10:38 AM 11.3°F-11.5°C 4.3°F-15.4°C 73% 4.0 mph SW6.4 kmh SW 11.0 mph17.7 kmh 30.49 in1032.5 mb 0.00 in0.0 mm 0.00 in0.0 mm 0.00 in0.0 mm
10:43 AM 11.1°F-11.6°C 4.1°F-15.5°C 73% 3.0 mph SW4.8 kmh SW 11.0 mph17.7 kmh 30.49 in1032.5 mb 0.00 in0.0 mm 0.00 in0.0 mm 0.00 in0.0 mm
10:48 AM 11.2°F-11.6°C 3.9°F-15.6°C 72% 3.0 mph WSW4.8 kmh WSW 11.0 mph17.7 kmh 30.49 in1032.5 mb 0.00 in0.0 mm 0.00 in0.0 mm 0.00 in0.0 mm
10:53 AM 11.3°F-11.5°C 4.0°F-15.6°C 72% 5.0 mph SW8.0 kmh SW 12.0 mph19.3 kmh 30.49 in1032.5 mb 0.00 in0.0 mm 0.00 in0.0 mm 0.00 in0.0 mm
10:58 AM 11.3°F-11.5°C 4.0°F-15.6°C 72% 4.0 mph SW6.4 kmh SW 12.0 mph19.3 kmh 30.49 in1032.5 mb 0.00 in0.0 mm 0.00 in0.0 mm 0.00 in0.0 mm
11:03 AM 11.4°F-11.4°C 4.1°F-15.5°C 72% 3.0 mph SW4.8 kmh SW 12.0 mph19.3 kmh 30.48 in1032.2 mb 0.00 in0.0 mm 0.00 in0.0 mm 0.00 in0.0 mm
11:08 AM 11.4°F-11.4°C 3.8°F-15.7°C 71% 5.0 mph WSW8.0 kmh WSW 12.0 mph19.3 kmh 30.49 in1032.5 mb 0.00 in0.0 mm 0.00 in0.0 mm 0.00 in0.0 mm
11:13 AM 11.7°F-11.3°C 4.1°F-15.5°C 71% 3.0 mph SW4.8 kmh SW 9.0 mph14.5 kmh 30.49 in1032.5 mb 0.00 in0.0 mm 0.00 in0.0 mm 0.00 in0.0 mm
11:18 AM 11.9°F-11.2°C 4.3°F-15.4°C 71% 3.0 mph SSW4.8 kmh SSW 9.0 mph14.5 kmh 30.49 in1032.5 mb 0.00 in0.0 mm 0.00 in0.0 mm 0.00 in0.0 mm
11:23 AM 12.1°F-11.1°C 4.5°F-15.3°C 71% 6.0 mph SW9.7 kmh SW 11.0 mph17.7 kmh 30.48 in1032.2 mb 0.00 in0.0 mm 0.00 in0.0 mm 0.00 in0.0 mm
11:28 AM 12.1°F-11.1°C 4.2°F-15.4°C 70% 5.0 mph SW8.0 kmh SW 11.0 mph17.7 kmh 30.48 in1032.2 mb 0.00 in0.0 mm 0.00 in0.0 mm 0.00 in0.0 mm
11:33 AM 12.1°F-11.1°C 4.2°F-15.4°C 70% 6.0 mph SSW9.7 kmh SSW 12.0 mph19.3 kmh 30.48 in1032.2 mb 0.00 in0.0 mm 0.00 in0.0 mm 0.00 in0.0 mm
11:38 AM 12.0°F-11.1°C 4.1°F-15.5°C 70% 3.0 mph SW4.8 kmh SW 12.0 mph19.3 kmh 30.48 in1032.2 mb 0.00 in0.0 mm 0.00 in0.0 mm 0.00 in0.0 mm
11:43 AM 12.1°F-11.1°C 4.2°F-15.4°C 70% 4.0 mph SW6.4 kmh SW 12.0 mph19.3 kmh 30.47 in1031.8 mb 0.00 in0.0 mm 0.00 in0.0 mm 0.00 in0.0 mm
11:48 AM 12.2°F-11.0°C 3.9°F-15.6°C 69% 7.0 mph SSE11.3 kmh SSE 17.0 mph27.4 kmh 30.47 in1031.8 mb 0.00 in0.0 mm 0.00 in0.0 mm 0.00 in0.0 mm
11:53 AM 12.3°F-10.9°C 4.0°F-15.6°C 69% 3.0 mph SW4.8 kmh SW 17.0 mph27.4 kmh 30.47 in1031.8 mb 0.00 in0.0 mm 0.00 in0.0 mm 0.00 in0.0 mm
11:58 AM 12.5°F-10.8°C 4.2°F-15.4°C 69% 7.0 mph S11.3 kmh S 17.0 mph27.4 kmh 30.47 in1031.8 mb 0.00 in0.0 mm 0.00 in0.0 mm 0.00 in0.0 mm
12:03 PM 12.5°F-10.8°C 4.2°F-15.4°C 69% 5.0 mph SSW8.0 kmh SSW 17.0 mph27.4 kmh 30.47 in1031.8 mb 0.00 in0.0 mm 0.00 in0.0 mm 0.00 in0.0 mm
12:08 PM 12.7°F-10.7°C 4.4°F-15.3°C 69% 7.0 mph S11.3 kmh S 11.0 mph17.7 kmh 30.47 in1031.8 mb 0.00 in0.0 mm 0.00 in0.0 mm 0.00 in0.0 mm
12:13 PM 12.5°F-10.8°C 4.2°F-15.4°C 69% 5.0 mph SW8.0 kmh SW 14.0 mph22.5 kmh 30.47 in1031.8 mb 0.00 in0.0 mm 0.00 in0.0 mm 0.00 in0.0 mm
12:18 PM 12.4°F-10.9°C 4.1°F-15.5°C 69% 3.0 mph SW4.8 kmh SW 14.0 mph22.5 kmh 30.47 in1031.8 mb 0.00 in0.0 mm 0.00 in0.0 mm 0.00 in0.0 mm
12:23 PM 12.4°F-10.9°C 4.5°F-15.3°C 70% 4.0 mph SW6.4 kmh SW 14.0 mph22.5 kmh 30.46 in1031.5 mb 0.00 in0.0 mm 0.00 in0.0 mm 0.00 in0.0 mm
12:28 PM 12.6°F-10.8°C 4.6°F-15.2°C 70% 4.0 mph WSW6.4 kmh WSW 14.0 mph22.5 kmh 30.46 in1031.5 mb 0.00 in0.0 mm 0.00 in0.0 mm 0.00 in0.0 mm
12:33 PM 12.9°F-10.6°C 4.6°F-15.2°C 69% 7.0 mph S11.3 kmh S 12.0 mph19.3 kmh 30.46 in1031.5 mb 0.00 in0.0 mm 0.00 in0.0 mm 0.00 in0.0 mm
12:38 PM 12.9°F-10.6°C 4.6°F-15.2°C 69% 6.0 mph SW9.7 kmh SW 12.0 mph19.3 kmh 30.45 in1031.2 mb 0.00 in0.0 mm 0.00 in0.0 mm 0.00 in0.0 mm
12:43 PM 13.0°F-10.6°C 4.7°F-15.2°C 69% 7.0 mph SW11.3 kmh SW 13.0 mph20.9 kmh 30.45 in1031.2 mb 0.00 in0.0 mm 0.00 in0.0 mm 0.00 in0.0 mm
12:48 PM 13.3°F-10.4°C 5.0°F-15.0°C 69% 8.0 mph SW12.9 kmh SW 13.0 mph20.9 kmh 30.45 in1031.2 mb 0.00 in0.0 mm 0.00 in0.0 mm 0.00 in0.0 mm
12:53 PM 13.6°F-10.2°C 5.3°F-14.8°C 69% 4.0 mph W6.4 kmh W 13.0 mph20.9 kmh 30.45 in1031.2 mb 0.00 in0.0 mm 0.00 in0.0 mm 0.00 in0.0 mm
12:58 PM 13.8°F-10.1°C 5.1°F-14.9°C 68% 5.0 mph SW8.0 kmh SW 13.0 mph20.9 kmh 30.45 in1031.2 mb 0.00 in0.0 mm 0.00 in0.0 mm 0.00 in0.0 mm
01:03 PM 13.8°F-10.1°C 4.8°F-15.1°C 67% 4.0 mph SW6.4 kmh SW 9.0 mph14.5 kmh 30.45 in1031.2 mb 0.00 in0.0 mm 0.00 in0.0 mm 0.00 in0.0 mm
01:08 PM 13.8°F-10.1°C 4.8°F-15.1°C 67% 5.0 mph SW8.0 kmh SW 9.0 mph14.5 kmh 30.45 in1031.2 mb 0.00 in0.0 mm 0.00 in0.0 mm 0.00 in0.0 mm
01:13 PM 13.8°F-10.1°C 4.8°F-15.1°C 67% 5.0 mph SW8.0 kmh SW 9.0 mph14.5 kmh 30.45 in1031.2 mb 0.00 in0.0 mm 0.00 in0.0 mm 0.00 in0.0 mm
01:18 PM 13.8°F-10.1°C 4.8°F-15.1°C 67% 5.0 mph SW8.0 kmh SW 10.0 mph16.1 kmh 30.45 in1031.2 mb 0.00 in0.0 mm 0.00 in0.0 mm 0.00 in0.0 mm
01:23 PM 13.9°F-10.1°C 4.9°F-15.1°C 67% 4.0 mph SW6.4 kmh SW 10.0 mph16.1 kmh 30.45 in1031.2 mb 0.00 in0.0 mm 0.00 in0.0 mm 0.00 in0.0 mm
01:28 PM 13.9°F-10.1°C 4.6°F-15.2°C 66% 5.0 mph SW8.0 kmh SW 10.0 mph16.1 kmh 30.45 in1031.2 mb 0.00 in0.0 mm 0.00 in0.0 mm 0.00 in0.0 mm
01:33 PM 13.9°F-10.1°C 4.6°F-15.2°C 66% 3.0 mph SW4.8 kmh SW 10.0 mph16.1 kmh 30.45 in1031.2 mb 0.00 in0.0 mm 0.00 in0.0 mm 0.00 in0.0 mm
01:38 PM 13.9°F-10.1°C 4.6°F-15.2°C 66% 4.0 mph SW6.4 kmh SW 10.0 mph16.1 kmh 30.45 in1031.2 mb 0.00 in0.0 mm 0.00 in0.0 mm 0.00 in0.0 mm
01:43 PM 13.9°F-10.1°C 4.9°F-15.1°C 67% 4.0 mph SW6.4 kmh SW 10.0 mph16.1 kmh 30.45 in1031.2 mb 0.00 in0.0 mm 0.00 in0.0 mm 0.00 in0.0 mm
01:48 PM 13.8°F-10.1°C 4.8°F-15.1°C 67% 4.0 mph SW6.4 kmh SW 10.0 mph16.1 kmh 30.45 in1031.2 mb 0.00 in0.0 mm 0.00 in0.0 mm 0.00 in0.0 mm
01:53 PM 13.9°F-10.1°C 4.9°F-15.1°C 67% 3.0 mph SW4.8 kmh SW 10.0 mph16.1 kmh 30.45 in1031.2 mb 0.00 in0.0 mm 0.00 in0.0 mm 0.00 in0.0 mm
01:58 PM 13.9°F-10.1°C 4.9°F-15.1°C 67% 5.0 mph WSW8.0 kmh WSW 10.0 mph16.1 kmh 30.45 in1031.2 mb 0.00 in0.0 mm 0.00 in0.0 mm 0.00 in0.0 mm
02:03 PM 13.7°F-10.2°C 4.7°F-15.2°C 67% 4.0 mph SW6.4 kmh SW 10.0 mph16.1 kmh 30.45 in1031.2 mb 0.00 in0.0 mm 0.00 in0.0 mm 0.00 in0.0 mm
02:08 PM 13.7°F-10.2°C 4.7°F-15.2°C 67% 5.0 mph SW8.0 kmh SW 10.0 mph16.1 kmh 30.45 in1031.2 mb 0.00 in0.0 mm 0.00 in0.0 mm 0.00 in0.0 mm
02:13 PM 13.8°F-10.1°C 4.8°F-15.1°C 67% 4.0 mph WSW6.4 kmh WSW 10.0 mph16.1 kmh 30.45 in1031.2 mb 0.00 in0.0 mm 0.00 in0.0 mm 0.00 in0.0 mm
02:18 PM 14.0°F-10.0°C 5.0°F-15.0°C 67% 2.0 mph WSW3.2 kmh WSW 9.0 mph14.5 kmh 30.45 in1031.2 mb 0.00 in0.0 mm 0.00 in0.0 mm 0.00 in0.0 mm
02:23 PM 14.2°F-9.9°C 5.2°F-14.9°C 67% 3.0 mph SW4.8 kmh SW 9.0 mph14.5 kmh 30.45 in1031.2 mb 0.00 in0.0 mm 0.00 in0.0 mm 0.00 in0.0 mm
02:28 PM 14.3°F-9.8°C 5.3°F-14.8°C 67% 3.0 mph WSW4.8 kmh WSW 7.0 mph11.3 kmh 30.45 in1031.2 mb 0.00 in0.0 mm 0.00 in0.0 mm 0.00 in0.0 mm
02:33 PM 14.4°F-9.8°C 5.4°F-14.8°C 67% 3.0 mph SW4.8 kmh SW 7.0 mph11.3 kmh 30.45 in1031.2 mb 0.00 in0.0 mm 0.00 in0.0 mm 0.00 in0.0 mm
02:38 PM 14.7°F-9.6°C 5.7°F-14.6°C 67% 2.0 mph SW3.2 kmh SW 5.0 mph8.0 kmh 30.45 in1031.2 mb 0.00 in0.0 mm 0.00 in0.0 mm 0.00 in0.0 mm
02:43 PM 14.9°F-9.5°C 5.9°F-14.5°C 67% 3.0 mph SW4.8 kmh SW 9.0 mph14.5 kmh 30.45 in1031.2 mb 0.00 in0.0 mm 0.00 in0.0 mm 0.00 in0.0 mm
02:48 PM 14.9°F-9.5°C 5.9°F-14.5°C 67% 2.0 mph SW3.2 kmh SW 9.0 mph14.5 kmh 30.45 in1031.2 mb 0.00 in0.0 mm 0.00 in0.0 mm 0.00 in0.0 mm
02:53 PM 14.5°F-9.7°C 5.1°F-14.9°C 66% 5.0 mph SW8.0 kmh SW 9.0 mph14.5 kmh 30.46 in1031.5 mb 0.00 in0.0 mm 0.00 in0.0 mm 0.00 in0.0 mm
02:58 PM 14.1°F-9.9°C 5.1°F-14.9°C 67% 3.0 mph SW4.8 kmh SW 9.0 mph14.5 kmh 30.46 in1031.5 mb 0.00 in0.0 mm 0.00 in0.0 mm 0.00 in0.0 mm
03:03 PM 13.9°F-10.1°C 4.9°F-15.1°C 67% 5.0 mph SW8.0 kmh SW 9.0 mph14.5 kmh 30.46 in1031.5 mb 0.00 in0.0 mm 0.00 in0.0 mm 0.00 in0.0 mm
03:08 PM 13.8°F-10.1°C 4.8°F-15.1°C 67% 4.0 mph SW6.4 kmh SW 9.0 mph14.5 kmh 30.46 in1031.5 mb 0.00 in0.0 mm 0.00 in0.0 mm 0.00 in0.0 mm
03:13 PM 13.8°F-10.1°C 4.8°F-15.1°C 67% 3.0 mph SW4.8 kmh SW 8.0 mph12.9 kmh 30.46 in1031.5 mb 0.00 in0.0 mm 0.00 in0.0 mm 0.00 in0.0 mm
03:18 PM 13.9°F-10.1°C 5.2°F-14.9°C 68% 7.0 mph S11.3 kmh S 8.0 mph12.9 kmh 30.46 in1031.5 mb 0.00 in0.0 mm 0.00 in0.0 mm 0.00 in0.0 mm
03:23 PM 14.0°F-10.0°C 5.3°F-14.8°C 68% 6.0 mph S9.7 kmh S 9.0 mph14.5 kmh 30.46 in1031.5 mb 0.00 in0.0 mm 0.00 in0.0 mm 0.00 in0.0 mm
03:28 PM 13.9°F-10.1°C 4.9°F-15.1°C 67% 4.0 mph SW6.4 kmh SW 9.0 mph14.5 kmh 30.46 in1031.5 mb 0.00 in0.0 mm 0.00 in0.0 mm 0.00 in0.0 mm
03:33 PM 13.9°F-10.1°C 4.9°F-15.1°C 67% 7.0 mph SSW11.3 kmh SSW 9.0 mph14.5 kmh 30.46 in1031.5 mb 0.00 in0.0 mm 0.00 in0.0 mm 0.00 in0.0 mm
03:38 PM 13.8°F-10.1°C 4.8°F-15.1°C 67% 4.0 mph WSW6.4 kmh WSW 9.0 mph14.5 kmh 30.46 in1031.5 mb 0.00 in0.0 mm 0.00 in0.0 mm 0.00 in0.0 mm
03:43 PM 13.7°F-10.2°C 4.7°F-15.2°C 67% 5.0 mph SSW8.0 kmh SSW 8.0 mph12.9 kmh 30.46 in1031.5 mb 0.00 in0.0 mm 0.00 in0.0 mm 0.00 in0.0 mm
03:48 PM 13.5°F-10.3°C 4.5°F-15.3°C 67% 5.0 mph SSW8.0 kmh SSW 10.0 mph16.1 kmh 30.46 in1031.5 mb 0.00 in0.0 mm 0.00 in0.0 mm 0.00 in0.0 mm
03:53 PM 13.2°F-10.4°C 3.9°F-15.6°C 66% 4.0 mph SW6.4 kmh SW 10.0 mph16.1 kmh 30.46 in1031.5 mb 0.00 in0.0 mm 0.00 in0.0 mm 0.00 in0.0 mm
03:58 PM 12.9°F-10.6°C 3.6°F-15.8°C 66% 4.0 mph WSW6.4 kmh WSW 11.0 mph17.7 kmh 30.47 in1031.8 mb 0.00 in0.0 mm 0.00 in0.0 mm 0.00 in0.0 mm
04:03 PM 12.8°F-10.7°C 3.5°F-15.8°C 66% 4.0 mph WSW6.4 kmh WSW 11.0 mph17.7 kmh 30.47 in1031.8 mb 0.00 in0.0 mm 0.00 in0.0 mm 0.00 in0.0 mm
04:08 PM 12.8°F-10.7°C 3.9°F-15.6°C 67% 8.0 mph SW12.9 kmh SW 11.0 mph17.7 kmh 30.47 in1031.8 mb 0.00 in0.0 mm 0.00 in0.0 mm 0.00 in0.0 mm
04:13 PM 12.6°F-10.8°C 3.3°F-15.9°C 66% 5.0 mph SW8.0 kmh SW 11.0 mph17.7 kmh 30.46 in1031.5 mb 0.00 in0.0 mm 0.00 in0.0 mm 0.00 in0.0 mm
04:18 PM 12.4°F-10.9°C 3.1°F-16.1°C 66% 9.0 mph WSW14.5 kmh WSW 13.0 mph20.9 kmh 30.46 in1031.5 mb 0.00 in0.0 mm 0.00 in0.0 mm 0.00 in0.0 mm
04:23 PM 12.1°F-11.1°C 2.9°F-16.2°C 66% 8.0 mph SW12.9 kmh SW 13.0 mph20.9 kmh 30.46 in1031.5 mb 0.00 in0.0 mm 0.00 in0.0 mm 0.00 in0.0 mm
04:28 PM 11.9°F-11.2°C 2.7°F-16.3°C 66% 9.0 mph SW14.5 kmh SW 13.0 mph20.9 kmh 30.46 in1031.5 mb 0.00 in0.0 mm 0.00 in0.0 mm 0.00 in0.0 mm
04:33 PM 11.5°F-11.4°C 2.3°F-16.5°C 66% 9.0 mph WSW14.5 kmh WSW 14.0 mph22.5 kmh 30.46 in1031.5 mb 0.00 in0.0 mm 0.00 in0.0 mm 0.00 in0.0 mm
04:38 PM 11.3°F-11.5°C 2.4°F-16.4°C 67% 6.0 mph SW9.7 kmh SW 14.0 mph22.5 kmh 30.46 in1031.5 mb 0.00 in0.0 mm 0.00 in0.0 mm 0.00 in0.0 mm
04:43 PM 11.2°F-11.6°C 2.3°F-16.5°C 67% 4.0 mph SW6.4 kmh SW 14.0 mph22.5 kmh 30.46 in1031.5 mb 0.00 in0.0 mm 0.00 in0.0 mm 0.00 in0.0 mm
04:48 PM 11.1°F-11.6°C 2.2°F-16.6°C 67% 4.0 mph SW6.4 kmh SW 14.0 mph22.5 kmh 30.47 in1031.8 mb 0.00 in0.0 mm 0.00 in0.0 mm 0.00 in0.0 mm
04:53 PM 11.0°F-11.7°C 2.1°F-16.6°C 67% 7.0 mph SW11.3 kmh SW 10.0 mph16.1 kmh 30.47 in1031.8 mb 0.00 in0.0 mm 0.00 in0.0 mm 0.00 in0.0 mm
04:58 PM 10.9°F-11.7°C 2.1°F-16.6°C 67% 5.0 mph WSW8.0 kmh WSW 12.0 mph19.3 kmh 30.48 in1032.2 mb 0.00 in0.0 mm 0.00 in0.0 mm 0.00 in0.0 mm
05:03 PM 10.7°F-11.8°C 1.9°F-16.7°C 67% 7.0 mph WSW11.3 kmh WSW 12.0 mph19.3 kmh 30.48 in1032.2 mb 0.00 in0.0 mm 0.00 in0.0 mm 0.00 in0.0 mm
05:08 PM 10.4°F-12.0°C 1.6°F-16.9°C 67% 8.0 mph WSW12.9 kmh WSW 12.0 mph19.3 kmh 30.48 in1032.2 mb 0.00 in0.0 mm 0.00 in0.0 mm 0.00 in0.0 mm
05:13 PM 10.2°F-12.1°C 1.4°F-17.0°C 67% 8.0 mph SW12.9 kmh SW 12.0 mph19.3 kmh 30.48 in1032.2 mb 0.00 in0.0 mm 0.00 in0.0 mm 0.00 in0.0 mm
05:18 PM 10.1°F-12.2°C 1.6°F-16.9°C 68% 7.0 mph WSW11.3 kmh WSW 12.0 mph19.3 kmh 30.48 in1032.2 mb 0.00 in0.0 mm 0.00 in0.0 mm 0.00 in0.0 mm
05:23 PM 9.9°F-12.3°C 1.4°F-17.0°C 68% 9.0 mph WSW14.5 kmh WSW 12.0 mph19.3 kmh 30.48 in1032.2 mb 0.00 in0.0 mm 0.00 in0.0 mm 0.00 in0.0 mm
05:28 PM 9.7°F-12.4°C 1.2°F-17.1°C 68% 6.0 mph WSW9.7 kmh WSW 12.0 mph19.3 kmh 30.49 in1032.5 mb 0.00 in0.0 mm 0.00 in0.0 mm 0.00 in0.0 mm
05:33 PM 9.4°F-12.6°C 0.9°F-17.3°C 68% 7.0 mph SW11.3 kmh SW 12.0 mph19.3 kmh 30.49 in1032.5 mb 0.00 in0.0 mm 0.00 in0.0 mm 0.00 in0.0 mm
05:38 PM 9.2°F-12.7°C 0.8°F-17.3°C 68% 9.0 mph SW14.5 kmh SW 11.0 mph17.7 kmh 30.49 in1032.5 mb 0.00 in0.0 mm 0.00 in0.0 mm 0.00 in0.0 mm
05:43 PM 9.1°F-12.7°C 0.7°F-17.4°C 68% 8.0 mph SW12.9 kmh SW 13.0 mph20.9 kmh 30.50 in1032.8 mb 0.00 in0.0 mm 0.00 in0.0 mm 0.00 in0.0 mm
05:48 PM 9.0°F-12.8°C 0.6°F-17.4°C 68% 6.0 mph WSW9.7 kmh WSW 13.0 mph20.9 kmh 30.50 in1032.8 mb 0.00 in0.0 mm 0.00 in0.0 mm 0.00 in0.0 mm
05:53 PM 8.9°F-12.8°C 0.8°F-17.3°C 69% 3.0 mph SW4.8 kmh SW 13.0 mph20.9 kmh 30.50 in1032.8 mb 0.00 in0.0 mm 0.00 in0.0 mm 0.00 in0.0 mm
05:58 PM 8.8°F-12.9°C 0.7°F-17.4°C 69% 2.0 mph SW3.2 kmh SW 13.0 mph20.9 kmh 30.50 in1032.8 mb 0.00 in0.0 mm 0.00 in0.0 mm 0.00 in0.0 mm
06:03 PM 8.7°F-12.9°C 0.6°F-17.4°C 69% 3.0 mph SSW4.8 kmh SSW 8.0 mph12.9 kmh 30.50 in1032.8 mb 0.00 in0.0 mm 0.00 in0.0 mm 0.00 in0.0 mm
06:08 PM 8.6°F-13.0°C 0.5°F-17.5°C 69% 2.0 mph SW3.2 kmh SW 8.0 mph12.9 kmh 30.50 in1032.8 mb 0.00 in0.0 mm 0.00 in0.0 mm 0.00 in0.0 mm
06:13 PM 8.4°F-13.1°C 0.3°F-17.6°C 69% 4.0 mph SW6.4 kmh SW 8.0 mph12.9 kmh 30.51 in1033.2 mb 0.00 in0.0 mm 0.00 in0.0 mm 0.00 in0.0 mm
06:18 PM 8.2°F-13.2°C 0.1°F-17.7°C 69% 2.0 mph SW3.2 kmh SW 8.0 mph12.9 kmh 30.51 in1033.2 mb 0.00 in0.0 mm 0.00 in0.0 mm 0.00 in0.0 mm
06:23 PM 7.9°F-13.4°C -0.2°F-17.9°C 69% 5.0 mph WSW8.0 kmh WSW 8.0 mph12.9 kmh 30.51 in1033.2 mb 0.00 in0.0 mm 0.00 in0.0 mm 0.00 in0.0 mm
06:28 PM 7.7°F-13.5°C -0.4°F-18.0°C 69% 3.0 mph SW4.8 kmh SW 9.0 mph14.5 kmh 30.52 in1033.5 mb 0.00 in0.0 mm 0.00 in0.0 mm 0.00 in0.0 mm
06:33 PM 7.6°F-13.6°C -0.5°F-18.1°C 69% 3.0 mph SW4.8 kmh SW 9.0 mph14.5 kmh 30.52 in1033.5 mb 0.00 in0.0 mm 0.00 in0.0 mm 0.00 in0.0 mm
06:38 PM 7.4°F-13.7°C -0.6°F-18.1°C 69% 5.0 mph SW8.0 kmh SW 9.0 mph14.5 kmh 30.52 in1033.5 mb 0.00 in0.0 mm 0.00 in0.0 mm 0.00 in0.0 mm
06:43 PM 7.2°F-13.8°C -0.8°F-18.2°C 69% 5.0 mph WSW8.0 kmh WSW 9.0 mph14.5 kmh 30.52 in1033.5 mb 0.00 in0.0 mm 0.00 in0.0 mm 0.00 in0.0 mm
06:48 PM 7.1°F-13.8°C -0.9°F-18.3°C 69% 4.0 mph SW6.4 kmh SW 7.0 mph11.3 kmh 30.52 in1033.5 mb 0.00 in0.0 mm 0.00 in0.0 mm 0.00 in0.0 mm
06:53 PM 6.9°F-13.9°C -1.1°F-18.4°C 69% 3.0 mph SW4.8 kmh SW 9.0 mph14.5 kmh 30.52 in1033.5 mb 0.00 in0.0 mm 0.00 in0.0 mm 0.00 in0.0 mm
06:58 PM 6.8°F-14.0°C -1.2°F-18.4°C 69% 3.0 mph WSW4.8 kmh WSW 9.0 mph14.5 kmh 30.52 in1033.5 mb 0.00 in0.0 mm 0.00 in0.0 mm 0.00 in0.0 mm
07:03 PM 6.7°F-14.1°C -1.0°F-18.3°C 70% 3.0 mph SW4.8 kmh SW 9.0 mph14.5 kmh 30.52 in1033.5 mb 0.00 in0.0 mm 0.00 in0.0 mm 0.00 in0.0 mm
07:08 PM 6.6°F-14.1°C -1.4°F-18.6°C 69% 3.0 mph SW4.8 kmh SW 9.0 mph14.5 kmh 30.52 in1033.5 mb 0.00 in0.0 mm 0.00 in0.0 mm 0.00 in0.0 mm
07:13 PM 6.5°F-14.2°C -1.2°F-18.4°C 70% 2.0 mph WSW3.2 kmh WSW 8.0 mph12.9 kmh 30.52 in1033.5 mb 0.00 in0.0 mm 0.00 in0.0 mm 0.00 in0.0 mm
07:18 PM 6.3°F-14.3°C -1.4°F-18.6°C 70% 3.0 mph SW4.8 kmh SW 8.0 mph12.9 kmh 30.52 in1033.5 mb 0.00 in0.0 mm 0.00 in0.0 mm 0.00 in0.0 mm
07:23 PM 6.1°F-14.4°C -1.6°F-18.7°C 70% 2.0 mph SW3.2 kmh SW 7.0 mph11.3 kmh 30.53 in1033.9 mb 0.00 in0.0 mm 0.00 in0.0 mm 0.00 in0.0 mm
07:28 PM 5.9°F-14.5°C -1.8°F-18.8°C 70% 3.0 mph SW4.8 kmh SW 9.0 mph14.5 kmh 30.53 in1033.9 mb 0.00 in0.0 mm 0.00 in0.0 mm 0.00 in0.0 mm
07:33 PM 5.8°F-14.6°C -1.9°F-18.8°C 70% 3.0 mph SW4.8 kmh SW 9.0 mph14.5 kmh 30.53 in1033.9 mb 0.00 in0.0 mm 0.00 in0.0 mm 0.00 in0.0 mm
07:38 PM 5.7°F-14.6°C -2.0°F-18.9°C 70% 2.0 mph WSW3.2 kmh WSW 9.0 mph14.5 kmh 30.53 in1033.9 mb 0.00 in0.0 mm 0.00 in0.0 mm 0.00 in0.0 mm
07:43 PM 5.6°F-14.7°C -2.1°F-18.9°C 70% 3.0 mph WSW4.8 kmh WSW 9.0 mph14.5 kmh 30.53 in1033.9 mb 0.00 in0.0 mm 0.00 in0.0 mm 0.00 in0.0 mm
07:48 PM 5.5°F-14.7°C -2.2°F-19.0°C 70% 3.0 mph SW4.8 kmh SW 6.0 mph9.7 kmh 30.53 in1033.9 mb 0.00 in0.0 mm 0.00 in0.0 mm 0.00 in0.0 mm
07:53 PM 5.4°F-14.8°C -1.9°F-18.8°C 71% 3.0 mph SW4.8 kmh SW 6.0 mph9.7 kmh 30.53 in1033.9 mb 0.00 in0.0 mm 0.00 in0.0 mm 0.00 in0.0 mm
07:58 PM 5.3°F-14.8°C -2.0°F-18.9°C 71% 2.0 mph WSW3.2 kmh WSW 7.0 mph11.3 kmh 30.53 in1033.9 mb 0.00 in0.0 mm 0.00 in0.0 mm 0.00 in0.0 mm
08:03 PM 5.2°F-14.9°C -2.1°F-18.9°C 71% 5.0 mph WSW8.0 kmh WSW 7.0 mph11.3 kmh 30.53 in1033.9 mb 0.00 in0.0 mm 0.00 in0.0 mm 0.00 in0.0 mm
08:08 PM 5.2°F-14.9°C -2.1°F-18.9°C 71% 6.0 mph W9.7 kmh W 7.0 mph11.3 kmh 30.53 in1033.9 mb 0.00 in0.0 mm 0.00 in0.0 mm 0.00 in0.0 mm
08:13 PM 5.2°F-14.9°C -2.1°F-18.9°C 71% 3.0 mph SW4.8 kmh SW 7.0 mph11.3 kmh 30.54 in1034.2 mb 0.00 in0.0 mm 0.00 in0.0 mm 0.00 in0.0 mm
08:18 PM 5.2°F-14.9°C -2.1°F-18.9°C 71% 4.0 mph WSW6.4 kmh WSW 7.0 mph11.3 kmh 30.54 in1034.2 mb 0.00 in0.0 mm 0.00 in0.0 mm 0.00 in0.0 mm
08:23 PM 5.1°F-14.9°C -2.2°F-19.0°C 71% 2.0 mph WSW3.2 kmh WSW 7.0 mph11.3 kmh 30.54 in1034.2 mb 0.00 in0.0 mm 0.00 in0.0 mm 0.00 in0.0 mm
08:28 PM 5.1°F-14.9°C -2.2°F-19.0°C 71% 2.0 mph WSW3.2 kmh WSW 7.0 mph11.3 kmh 30.54 in1034.2 mb 0.00 in0.0 mm 0.00 in0.0 mm 0.00 in0.0 mm
08:33 PM 4.9°F-15.1°C -2.4°F-19.1°C 71% 4.0 mph SW6.4 kmh SW 5.0 mph8.0 kmh 30.53 in1033.9 mb 0.00 in0.0 mm 0.00 in0.0 mm 0.00 in0.0 mm
08:38 PM 4.8°F-15.1°C -2.5°F-19.2°C 71% 3.0 mph WSW4.8 kmh WSW 6.0 mph9.7 kmh 30.54 in1034.2 mb 0.00 in0.0 mm 0.00 in0.0 mm 0.00 in0.0 mm
08:43 PM 4.7°F-15.2°C -2.6°F-19.2°C 71% 3.0 mph SW4.8 kmh SW 9.0 mph14.5 kmh 30.54 in1034.2 mb 0.00 in0.0 mm 0.00 in0.0 mm 0.00 in0.0 mm
08:48 PM 4.7°F-15.2°C -2.6°F-19.2°C 71% 3.0 mph SW4.8 kmh SW 9.0 mph14.5 kmh 30.54 in1034.2 mb 0.00 in0.0 mm 0.00 in0.0 mm 0.00 in0.0 mm
08:53 PM 4.6°F-15.2°C -2.7°F-19.3°C 71% 5.0 mph SW8.0 kmh SW 9.0 mph14.5 kmh 30.54 in1034.2 mb 0.00 in0.0 mm 0.00 in0.0 mm 0.00 in0.0 mm
08:58 PM 4.5°F-15.3°C -2.8°F-19.3°C 71% 3.0 mph WSW4.8 kmh WSW 9.0 mph14.5 kmh 30.54 in1034.2 mb 0.00 in0.0 mm 0.00 in0.0 mm 0.00 in0.0 mm
09:03 PM 4.3°F-15.4°C -2.7°F-19.3°C 72% 3.0 mph SSW4.8 kmh SSW 9.0 mph14.5 kmh 30.54 in1034.2 mb 0.00 in0.0 mm 0.00 in0.0 mm 0.00 in0.0 mm
09:08 PM 4.2°F-15.4°C -2.8°F-19.3°C 72% 2.0 mph SW3.2 kmh SW 9.0 mph14.5 kmh 30.54 in1034.2 mb 0.00 in0.0 mm 0.00 in0.0 mm 0.00 in0.0 mm
09:13 PM 4.1°F-15.5°C -2.9°F-19.4°C 72% 3.0 mph WSW4.8 kmh WSW 9.0 mph14.5 kmh 30.54 in1034.2 mb 0.00 in0.0 mm 0.00 in0.0 mm 0.00 in0.0 mm
09:18 PM 4.0°F-15.6°C -3.0°F-19.4°C 72% 3.0 mph SW4.8 kmh SW 7.0 mph11.3 kmh 30.54 in1034.2 mb 0.00 in0.0 mm 0.00 in0.0 mm 0.00 in0.0 mm
09:23 PM 3.9°F-15.6°C -3.1°F-19.5°C 72% 2.0 mph SW3.2 kmh SW 7.0 mph11.3 kmh 30.55 in1034.5 mb 0.00 in0.0 mm 0.00 in0.0 mm 0.00 in0.0 mm
09:28 PM 3.8°F-15.7°C -3.2°F-19.6°C 72% 2.0 mph WSW3.2 kmh WSW 7.0 mph11.3 kmh 30.55 in1034.5 mb 0.00 in0.0 mm 0.00 in0.0 mm 0.00 in0.0 mm
09:33 PM 3.7°F-15.7°C -3.3°F-19.6°C 72% 3.0 mph SW4.8 kmh SW 8.0 mph12.9 kmh 30.55 in1034.5 mb 0.00 in0.0 mm 0.00 in0.0 mm 0.00 in0.0 mm
09:38 PM 3.6°F-15.8°C -3.4°F-19.7°C 72% 3.0 mph SW4.8 kmh SW 8.0 mph12.9 kmh 30.55 in1034.5 mb 0.00 in0.0 mm 0.00 in0.0 mm 0.00 in0.0 mm
09:43 PM 3.5°F-15.8°C -3.5°F-19.7°C 72% 2.0 mph WSW3.2 kmh WSW 8.0 mph12.9 kmh 30.55 in1034.5 mb 0.00 in0.0 mm 0.00 in0.0 mm 0.00 in0.0 mm
09:48 PM 3.4°F-15.9°C -3.6°F-19.8°C 72% 2.0 mph SW3.2 kmh SW 8.0 mph12.9 kmh 30.55 in1034.5 mb 0.00 in0.0 mm 0.00 in0.0 mm 0.00 in0.0 mm
09:53 PM 3.2°F-16.0°C -3.8°F-19.9°C 72% 2.0 mph SW3.2 kmh SW 8.0 mph12.9 kmh 30.55 in1034.5 mb 0.00 in0.0 mm 0.00 in0.0 mm 0.00 in0.0 mm
09:58 PM 3.1°F-16.1°C -3.9°F-19.9°C 72% 2.0 mph SW3.2 kmh SW 8.0 mph12.9 kmh 30.55 in1034.5 mb 0.00 in0.0 mm 0.00 in0.0 mm 0.00 in0.0 mm
10:03 PM 3.1°F-16.1°C -3.9°F-19.9°C 72% 4.0 mph SW6.4 kmh SW 5.0 mph8.0 kmh 30.55 in1034.5 mb 0.00 in0.0 mm 0.00 in0.0 mm 0.00 in0.0 mm
10:08 PM 3.0°F-16.1°C -4.0°F-20.0°C 72% 6.0 mph SW9.7 kmh SW 8.0 mph12.9 kmh 30.55 in1034.5 mb 0.00 in0.0 mm 0.00 in0.0 mm 0.00 in0.0 mm
10:13 PM 2.9°F-16.2°C -4.1°F-20.1°C 72% 5.0 mph WSW8.0 kmh WSW 8.0 mph12.9 kmh 30.55 in1034.5 mb 0.00 in0.0 mm 0.00 in0.0 mm 0.00 in0.0 mm
10:18 PM 2.9°F-16.2°C -3.8°F-19.9°C 73% 5.0 mph SW8.0 kmh SW 9.0 mph14.5 kmh 30.55 in1034.5 mb 0.00 in0.0 mm 0.00 in0.0 mm 0.00 in0.0 mm
10:23 PM 2.8°F-16.2°C -3.9°F-19.9°C 73% 6.0 mph SW9.7 kmh SW 9.0 mph14.5 kmh 30.55 in1034.5 mb 0.00 in0.0 mm 0.00 in0.0 mm 0.00 in0.0 mm
10:28 PM 2.8°F-16.2°C -3.9°F-19.9°C 73% 4.0 mph SW6.4 kmh SW 9.0 mph14.5 kmh 30.55 in1034.5 mb 0.00 in0.0 mm 0.00 in0.0 mm 0.00 in0.0 mm
10:33 PM 2.8°F-16.2°C -3.9°F-19.9°C 73% 8.0 mph SW12.9 kmh SW 10.0 mph16.1 kmh 30.55 in1034.5 mb 0.00 in0.0 mm 0.00 in0.0 mm 0.00 in0.0 mm
10:38 PM 2.8°F-16.2°C -3.9°F-19.9°C 73% 6.0 mph SW9.7 kmh SW 10.0 mph16.1 kmh 30.55 in1034.5 mb 0.00 in0.0 mm 0.00 in0.0 mm 0.00 in0.0 mm
10:43 PM 2.8°F-16.2°C -3.9°F-19.9°C 73% 4.0 mph SW6.4 kmh SW 10.0 mph16.1 kmh 30.55 in1034.5 mb 0.00 in0.0 mm 0.00 in0.0 mm 0.00 in0.0 mm
10:48 PM 2.8°F-16.2°C -3.9°F-19.9°C 73% 6.0 mph SW9.7 kmh SW 10.0 mph16.1 kmh 30.55 in1034.5 mb 0.00 in0.0 mm 0.00 in0.0 mm 0.00 in0.0 mm
10:53 PM 2.8°F-16.2°C -3.9°F-19.9°C 73% 6.0 mph SW9.7 kmh SW 8.0 mph12.9 kmh 30.55 in1034.5 mb 0.00 in0.0 mm 0.00 in0.0 mm 0.00 in0.0 mm
10:58 PM 2.7°F-16.3°C -3.9°F-19.9°C 73% 6.0 mph SW9.7 kmh SW 10.0 mph16.1 kmh 30.55 in1034.5 mb 0.00 in0.0 mm 0.00 in0.0 mm 0.00 in0.0 mm
11:03 PM 2.7°F-16.3°C -3.9°F-19.9°C 73% 2.0 mph SW3.2 kmh SW 10.0 mph16.1 kmh 30.55 in1034.5 mb 0.00 in0.0 mm 0.00 in0.0 mm 0.00 in0.0 mm
11:08 PM 2.7°F-16.3°C -3.9°F-19.9°C 73% 4.0 mph SSW6.4 kmh SSW 10.0 mph16.1 kmh 30.55 in1034.5 mb 0.00 in0.0 mm 0.00 in0.0 mm 0.00 in0.0 mm
11:13 PM 2.6°F-16.3°C -4.0°F-20.0°C 73% 2.0 mph SW3.2 kmh SW 10.0 mph16.1 kmh 30.55 in1034.5 mb 0.00 in0.0 mm 0.00 in0.0 mm 0.00 in0.0 mm
11:18 PM 2.6°F-16.3°C -4.0°F-20.0°C 73% 2.0 mph SW3.2 kmh SW 7.0 mph11.3 kmh 30.55 in1034.5 mb 0.00 in0.0 mm 0.00 in0.0 mm 0.00 in0.0 mm
11:23 PM 2.6°F-16.3°C -4.0°F-20.0°C 73% 3.0 mph SW4.8 kmh SW 7.0 mph11.3 kmh 30.55 in1034.5 mb 0.00 in0.0 mm 0.00 in0.0 mm 0.00 in0.0 mm
11:28 PM 2.5°F-16.4°C -4.1°F-20.1°C 73% 2.0 mph SW3.2 kmh SW 7.0 mph11.3 kmh 30.55 in1034.5 mb 0.00 in0.0 mm 0.00 in0.0 mm 0.00 in0.0 mm
11:33 PM 2.5°F-16.4°C -4.1°F-20.1°C 73% 5.0 mph WSW8.0 kmh WSW 7.0 mph11.3 kmh 30.55 in1034.5 mb 0.00 in0.0 mm 0.00 in0.0 mm 0.00 in0.0 mm
11:38 PM 2.4°F-16.4°C -4.2°F-20.1°C 73% 2.0 mph SW3.2 kmh SW 6.0 mph9.7 kmh 30.55 in1034.5 mb 0.00 in0.0 mm 0.00 in0.0 mm 0.00 in0.0 mm
11:43 PM 2.4°F-16.4°C -4.2°F-20.1°C 73% 3.0 mph SW4.8 kmh SW 6.0 mph9.7 kmh 30.55 in1034.5 mb 0.00 in0.0 mm 0.00 in0.0 mm 0.00 in0.0 mm
11:48 PM 2.4°F-16.4°C -4.2°F-20.1°C 73% 4.0 mph SW6.4 kmh SW 6.0 mph9.7 kmh 30.55 in1034.5 mb 0.00 in0.0 mm 0.00 in0.0 mm 0.00 in0.0 mm
11:53 PM 2.3°F-16.5°C -4.3°F-20.2°C 73% 4.0 mph SSW6.4 kmh SSW 6.0 mph9.7 kmh 30.54 in1034.2 mb 0.00 in0.0 mm 0.00 in0.0 mm 0.00 in0.0 mm
11:58 PM 2.3°F-16.5°C -4.0°F-20.0°C 74% 3.0 mph SW4.8 kmh SW 6.0 mph9.7 kmh 30.55 in1034.5 mb 0.00 in0.0 mm 0.00 in0.0 mm 0.00 in0.0 mm